createdAt,value
2023-04-20T00:00:40.998Z,9.25
2023-04-20T00:01:40.990Z,9.25
2023-04-20T00:02:41.121Z,9.26
2023-04-20T00:03:41.095Z,9.26
2023-04-20T00:04:41.029Z,9.26
2023-04-20T00:05:40.922Z,9.25
2023-04-20T00:06:40.910Z,9.23
2023-04-20T00:07:40.899Z,9.22
2023-04-20T00:08:40.922Z,9.21
2023-04-20T00:09:40.870Z,9.21
2023-04-20T00:10:40.868Z,9.18
2023-04-20T00:11:40.840Z,9.16
2023-04-20T00:12:40.830Z,9.13
2023-04-20T00:13:40.836Z,9.10
2023-04-20T00:14:40.855Z,9.06
2023-04-20T00:15:40.791Z,9.08
2023-04-20T00:16:43.814Z,9.10
2023-04-20T00:17:43.814Z,9.10
2023-04-20T00:18:40.740Z,9.06
2023-04-20T00:19:40.753Z,9.02
2023-04-20T00:20:40.761Z,9.00
2023-04-20T00:21:40.701Z,8.94
2023-04-20T00:22:40.696Z,8.89
2023-04-20T00:23:40.682Z,8.87
2023-04-20T00:24:40.663Z,8.88
2023-04-20T00:25:40.689Z,8.88
2023-04-20T00:26:40.636Z,8.87
2023-04-20T00:27:40.646Z,8.84
2023-04-20T00:28:40.609Z,8.81
2023-04-20T00:29:40.602Z,8.79
2023-04-20T00:30:40.608Z,8.78
2023-04-20T00:31:40.562Z,8.76
2023-04-20T00:32:40.657Z,8.76
2023-04-20T00:33:40.531Z,8.74
2023-04-20T00:34:40.543Z,8.74
2023-04-20T00:35:40.518Z,8.74
2023-04-20T00:36:43.496Z,8.76
2023-04-20T00:37:43.531Z,8.73
2023-04-20T00:38:40.493Z,8.71
2023-04-20T00:39:40.459Z,8.73
2023-04-20T00:40:40.461Z,8.69
2023-04-20T00:41:40.428Z,8.67
2023-04-20T00:42:40.417Z,8.64
2023-04-20T00:43:40.454Z,8.64
2023-04-20T00:44:40.396Z,8.63
2023-04-20T00:45:40.374Z,8.58
2023-04-20T00:46:40.474Z,8.58
2023-04-20T00:47:40.418Z,8.60
2023-04-20T00:48:40.351Z,8.61
2023-04-20T00:49:40.344Z,8.61
2023-04-20T00:50:40.337Z,8.56
2023-04-20T00:51:40.293Z,8.56
2023-04-20T00:52:40.306Z,8.56
2023-04-20T00:53:40.266Z,8.55
2023-04-20T00:54:40.282Z,8.51
2023-04-20T00:55:40.246Z,8.52
2023-04-20T00:56:43.262Z,8.51
2023-04-20T00:57:43.222Z,8.51
2023-04-20T00:58:40.201Z,8.49
2023-04-20T00:59:40.219Z,8.49
2023-04-20T01:00:40.177Z,8.48
2023-04-20T01:01:40.202Z,8.46
2023-04-20T01:02:40.283Z,8.46
2023-04-20T01:03:40.408Z,8.44
2023-04-20T01:04:40.256Z,8.42
2023-04-20T01:05:40.101Z,8.42
2023-04-20T01:06:40.101Z,8.38
2023-04-20T01:07:40.112Z,8.38
2023-04-20T01:08:40.074Z,8.41
2023-04-20T01:09:40.069Z,8.41
2023-04-20T01:10:40.044Z,8.38
2023-04-20T01:11:40.070Z,8.38
2023-04-20T01:12:40.005Z,8.37
2023-04-20T01:13:40.008Z,8.38
2023-04-20T01:14:40.023Z,8.37
2023-04-20T01:15:39.999Z,8.37
2023-04-20T01:16:42.975Z,8.34
2023-04-20T01:17:42.957Z,8.34
2023-04-20T01:18:39.932Z,8.33
2023-04-20T01:19:39.963Z,8.28
2023-04-20T01:20:39.901Z,8.27
2023-04-20T01:21:39.893Z,8.27
2023-04-20T01:22:39.913Z,8.30
2023-04-20T01:23:39.885Z,8.30
2023-04-20T01:24:39.851Z,8.30
2023-04-20T01:25:39.837Z,8.31
2023-04-20T01:26:39.858Z,8.33
2023-04-20T01:27:39.800Z,8.33
2023-04-20T01:28:39.821Z,8.34
2023-04-20T01:29:39.778Z,8.36
2023-04-20T01:30:39.775Z,8.38
2023-04-20T01:31:39.779Z,8.10
2023-04-20T01:32:39.860Z,8.09
2023-04-20T01:33:39.727Z,8.06
2023-04-20T01:34:39.723Z,8.06
2023-04-20T01:35:39.770Z,8.00
2023-04-20T01:36:42.726Z,8.03
2023-04-20T01:37:42.680Z,8.24
2023-04-20T01:38:39.689Z,8.24
2023-04-20T01:39:39.707Z,8.20
2023-04-20T01:40:39.654Z,8.20
2023-04-20T01:41:39.631Z,8.20
2023-04-20T01:42:39.614Z,8.20
2023-04-20T01:43:39.682Z,8.20
2023-04-20T01:44:39.641Z,8.23
2023-04-20T01:45:39.582Z,8.20
2023-04-20T01:46:39.614Z,8.19
2023-04-20T01:47:39.552Z,8.16
2023-04-20T01:48:39.527Z,8.16
2023-04-20T01:49:39.530Z,8.16
2023-04-20T01:50:39.543Z,8.13
2023-04-20T01:51:39.499Z,8.10
2023-04-20T01:52:39.472Z,8.09
2023-04-20T01:53:39.565Z,7.88
2023-04-20T01:54:39.447Z,8.06
2023-04-20T01:55:39.462Z,8.09
2023-04-20T01:56:42.443Z,8.09
2023-04-20T01:57:42.402Z,8.05
2023-04-20T01:58:39.402Z,7.98
2023-04-20T01:59:39.390Z,7.97
2023-04-20T02:00:39.488Z,7.95
2023-04-20T02:01:39.362Z,7.94
2023-04-20T02:02:39.559Z,7.93
2023-04-20T02:03:39.473Z,7.88
2023-04-20T02:04:39.342Z,7.88
2023-04-20T02:05:39.317Z,7.88
2023-04-20T02:06:39.326Z,7.85
2023-04-20T02:07:39.275Z,7.88
2023-04-20T02:08:39.262Z,7.63
2023-04-20T02:09:39.243Z,7.60
2023-04-20T02:10:39.256Z,7.63
2023-04-20T02:11:39.222Z,7.79
2023-04-20T02:12:39.231Z,7.79
2023-04-20T02:13:39.183Z,7.82
2023-04-20T02:14:39.194Z,7.82
2023-04-20T02:15:39.174Z,7.82
2023-04-20T02:16:42.212Z,7.79
2023-04-20T02:17:42.189Z,7.56
2023-04-20T02:18:39.135Z,7.77
2023-04-20T02:19:39.116Z,7.58
2023-04-20T02:20:39.104Z,7.76
2023-04-20T02:21:39.076Z,7.76
2023-04-20T02:22:39.072Z,7.76
2023-04-20T02:23:39.084Z,7.77
2023-04-20T02:24:39.070Z,7.75
2023-04-20T02:25:39.019Z,7.76
2023-04-20T02:26:39.014Z,7.76
2023-04-20T02:27:39.012Z,7.77
2023-04-20T02:28:39.037Z,7.79
2023-04-20T02:29:38.981Z,7.76
2023-04-20T02:30:38.963Z,7.77
2023-04-20T02:31:38.974Z,7.76
2023-04-20T02:32:38.985Z,7.77
2023-04-20T02:33:38.925Z,7.77
2023-04-20T02:34:38.933Z,7.76
2023-04-20T02:35:38.911Z,7.76
2023-04-20T02:36:41.883Z,7.76
2023-04-20T02:37:41.868Z,7.76
2023-04-20T02:38:38.891Z,7.50
2023-04-20T02:39:38.870Z,7.51
2023-04-20T02:40:38.822Z,7.67
2023-04-20T02:41:38.804Z,7.57
2023-04-20T02:42:38.853Z,7.54
2023-04-20T02:43:38.784Z,7.51
2023-04-20T02:44:38.839Z,7.48
2023-04-20T02:45:38.836Z,7.43
2023-04-20T02:46:38.824Z,7.40
2023-04-20T02:47:38.764Z,7.39
2023-04-20T02:48:38.728Z,7.38
2023-04-20T02:49:38.716Z,7.38
2023-04-20T02:50:38.752Z,7.40
2023-04-20T02:51:38.674Z,7.39
2023-04-20T02:52:38.662Z,7.38
2023-04-20T02:53:38.673Z,7.36
2023-04-20T02:54:38.643Z,7.38
2023-04-20T02:55:38.626Z,7.39
2023-04-20T02:56:41.657Z,7.40
2023-04-20T02:57:41.615Z,7.42
2023-04-20T02:58:38.584Z,7.47
2023-04-20T02:59:38.580Z,7.48
2023-04-20T03:00:38.619Z,7.48
2023-04-20T03:01:38.606Z,7.48
2023-04-20T03:02:38.749Z,7.50
2023-04-20T03:03:38.659Z,7.48
2023-04-20T03:04:38.738Z,7.48
2023-04-20T03:05:38.493Z,7.47
2023-04-20T03:06:38.996Z,7.47
2023-04-20T03:07:38.478Z,7.45
2023-04-20T03:08:38.454Z,7.45
2023-04-20T03:09:38.440Z,7.47
2023-04-20T03:10:38.450Z,7.50
2023-04-20T03:11:38.415Z,7.50
2023-04-20T03:12:38.427Z,7.51
2023-04-20T03:13:38.383Z,7.54
2023-04-20T03:14:38.391Z,7.53
2023-04-20T03:15:38.364Z,7.51
2023-04-20T03:16:41.395Z,7.53
2023-04-20T03:17:41.381Z,7.51
2023-04-20T03:18:38.343Z,7.54
2023-04-20T03:19:38.298Z,7.54
2023-04-20T03:20:38.302Z,7.53
2023-04-20T03:21:38.293Z,7.53
2023-04-20T03:22:38.304Z,7.53
2023-04-20T03:23:38.251Z,7.24
2023-04-20T03:24:38.266Z,7.28
2023-04-20T03:25:38.230Z,7.24
2023-04-20T03:26:38.216Z,7.29
2023-04-20T03:27:38.198Z,7.32
2023-04-20T03:28:38.256Z,7.31
2023-04-20T03:29:38.172Z,7.31
2023-04-20T03:30:38.159Z,7.31
2023-04-20T03:31:38.181Z,7.31
2023-04-20T03:32:38.162Z,7.31
2023-04-20T03:33:38.119Z,7.29
2023-04-20T03:34:38.141Z,7.31
2023-04-20T03:35:38.084Z,7.29
2023-04-20T03:36:41.081Z,7.32
2023-04-20T03:37:41.063Z,7.31
2023-04-20T03:38:38.075Z,7.29
2023-04-20T03:39:38.034Z,7.31
2023-04-20T03:40:38.034Z,7.31
2023-04-20T03:41:38.025Z,7.31
2023-04-20T03:42:38.024Z,7.29
2023-04-20T03:43:38.002Z,7.31
2023-04-20T03:44:38.025Z,7.32
2023-04-20T03:45:38.001Z,7.32
2023-04-20T03:46:37.938Z,7.29
2023-04-20T03:47:38.004Z,7.31
2023-04-20T03:48:37.922Z,7.32
2023-04-20T03:49:37.900Z,7.29
2023-04-20T03:50:37.917Z,7.29
2023-04-20T03:51:37.878Z,7.24
2023-04-20T03:52:37.879Z,7.21
2023-04-20T03:53:39.516Z,7.18
2023-04-20T03:54:37.836Z,7.15
2023-04-20T03:55:37.870Z,7.15
2023-04-20T03:56:40.848Z,7.11
2023-04-20T03:57:40.792Z,7.13
2023-04-20T03:58:37.780Z,7.07
2023-04-20T03:59:37.770Z,7.05
2023-04-20T04:00:37.758Z,7.02
2023-04-20T04:01:37.781Z,6.99
2023-04-20T04:02:38.488Z,6.97
2023-04-20T04:03:37.848Z,6.92
2023-04-20T04:04:37.848Z,6.87
2023-04-20T04:05:37.700Z,6.85
2023-04-20T04:06:37.704Z,6.87
2023-04-20T04:07:37.742Z,6.85
2023-04-20T04:08:37.662Z,6.85
2023-04-20T04:09:37.629Z,6.84
2023-04-20T04:10:37.650Z,6.85
2023-04-20T04:11:37.610Z,6.85
2023-04-20T04:12:37.596Z,6.85
2023-04-20T04:13:37.631Z,6.87
2023-04-20T04:14:37.570Z,6.85
2023-04-20T04:15:37.558Z,6.84
2023-04-20T04:16:40.546Z,6.82
2023-04-20T04:17:40.596Z,6.82
2023-04-20T04:18:37.548Z,6.81
2023-04-20T04:19:37.513Z,6.77
2023-04-20T04:20:37.487Z,6.77
2023-04-20T04:21:37.487Z,6.72
2023-04-20T04:22:37.467Z,6.72
2023-04-20T04:23:37.476Z,6.70
2023-04-20T04:24:37.439Z,6.70
2023-04-20T04:25:37.428Z,6.66
2023-04-20T04:26:37.412Z,6.69
2023-04-20T04:27:37.477Z,6.67
2023-04-20T04:28:37.399Z,6.63
2023-04-20T04:29:37.397Z,6.64
2023-04-20T04:30:37.447Z,6.62
2023-04-20T04:31:37.374Z,6.59
2023-04-20T04:32:37.341Z,6.59
2023-04-20T04:33:37.340Z,6.59
2023-04-20T04:34:37.297Z,6.56
2023-04-20T04:35:37.356Z,6.52
2023-04-20T04:36:40.279Z,6.49
2023-04-20T04:37:40.262Z,6.48
2023-04-20T04:38:37.254Z,6.44
2023-04-20T04:39:37.267Z,6.39
2023-04-20T04:40:37.224Z,6.35
2023-04-20T04:41:37.207Z,6.31
2023-04-20T04:42:37.247Z,6.28
2023-04-20T04:43:37.168Z,6.27
2023-04-20T04:44:37.209Z,6.26
2023-04-20T04:45:37.136Z,6.26
2023-04-20T04:46:37.177Z,6.22
2023-04-20T04:47:37.149Z,6.22
2023-04-20T04:48:37.101Z,6.19
2023-04-20T04:49:37.107Z,6.16
2023-04-20T04:50:37.108Z,6.14
2023-04-20T04:51:37.063Z,6.12
2023-04-20T04:52:37.081Z,6.09
2023-04-20T04:53:37.035Z,6.05
2023-04-20T04:54:37.028Z,6.07
2023-04-20T04:55:37.082Z,6.05
2023-04-20T04:56:39.996Z,6.05
2023-04-20T04:57:39.979Z,6.02
2023-04-20T04:58:36.971Z,6.04
2023-04-20T04:59:36.953Z,5.97
2023-04-20T05:00:37.003Z,5.99
2023-04-20T05:01:36.996Z,6.01
2023-04-20T05:02:37.250Z,5.98
2023-04-20T05:03:37.130Z,5.98
2023-04-20T05:04:37.048Z,5.97
2023-04-20T05:05:36.876Z,5.97
2023-04-20T05:06:36.890Z,5.94
2023-04-20T05:07:36.877Z,5.90
2023-04-20T05:08:36.830Z,5.89
2023-04-20T05:09:36.818Z,5.89
2023-04-20T05:10:36.823Z,5.91
2023-04-20T05:11:36.788Z,5.93
2023-04-20T05:12:36.816Z,5.93
2023-04-20T05:13:36.764Z,5.93
2023-04-20T05:14:36.791Z,5.93
2023-04-20T05:15:36.739Z,5.94
2023-04-20T05:16:39.752Z,5.94
2023-04-20T05:17:39.812Z,5.97
2023-04-20T05:18:36.712Z,5.94
2023-04-20T05:19:36.687Z,5.94
2023-04-20T05:20:36.666Z,5.98
2023-04-20T05:21:36.654Z,5.97
2023-04-20T05:22:36.672Z,5.97
2023-04-20T05:23:36.654Z,5.98
2023-04-20T05:24:36.615Z,6.01
2023-04-20T05:25:36.595Z,6.02
2023-04-20T05:26:36.598Z,6.04
2023-04-20T05:27:36.564Z,6.01
2023-04-20T05:28:36.587Z,5.90
2023-04-20T05:29:36.544Z,5.89
2023-04-20T05:30:36.540Z,5.89
2023-04-20T05:31:36.757Z,5.71
2023-04-20T05:32:36.541Z,5.72
2023-04-20T05:33:36.489Z,5.71
2023-04-20T05:34:36.491Z,5.76
2023-04-20T05:35:36.457Z,5.94
2023-04-20T05:36:39.485Z,5.94
2023-04-20T05:37:39.456Z,5.97
2023-04-20T05:38:36.418Z,5.97
2023-04-20T05:39:36.419Z,5.98
2023-04-20T05:40:36.452Z,5.87
2023-04-20T05:41:36.413Z,5.93
2023-04-20T05:42:36.362Z,5.83
2023-04-20T05:43:36.361Z,5.84
2023-04-20T05:44:36.369Z,5.84
2023-04-20T05:45:36.401Z,5.83
2023-04-20T05:46:36.315Z,5.82
2023-04-20T05:47:36.478Z,5.82
2023-04-20T05:48:36.291Z,5.82
2023-04-20T05:49:36.324Z,5.79
2023-04-20T05:50:36.261Z,5.82
2023-04-20T05:51:36.266Z,5.82
2023-04-20T05:52:36.215Z,5.82
2023-04-20T05:53:36.234Z,5.82
2023-04-20T05:54:36.202Z,5.80
2023-04-20T05:55:36.219Z,5.79
2023-04-20T05:56:39.171Z,5.80
2023-04-20T05:57:39.181Z,5.79
2023-04-20T05:58:36.149Z,5.80
2023-04-20T05:59:36.162Z,5.82
2023-04-20T06:00:36.196Z,5.82
2023-04-20T06:01:36.108Z,5.82
2023-04-20T06:02:36.296Z,5.80
2023-04-20T06:03:36.223Z,5.83
2023-04-20T06:04:36.397Z,5.83
2023-04-20T06:05:36.095Z,5.83
2023-04-20T06:06:36.045Z,5.83
2023-04-20T06:07:36.027Z,5.86
2023-04-20T06:08:36.031Z,5.86
2023-04-20T06:09:36.010Z,5.86
2023-04-20T06:10:36.029Z,5.87
2023-04-20T06:11:35.984Z,5.89
2023-04-20T06:12:35.986Z,5.90
2023-04-20T06:13:35.945Z,5.90
2023-04-20T06:14:35.935Z,5.90
2023-04-20T06:15:35.943Z,5.90
2023-04-20T06:16:38.938Z,5.94
2023-04-20T06:17:38.912Z,5.73
2023-04-20T06:18:35.882Z,5.75
2023-04-20T06:19:35.872Z,5.75
2023-04-20T06:20:35.860Z,5.91
2023-04-20T06:21:35.864Z,5.93
2023-04-20T06:22:35.836Z,5.91
2023-04-20T06:23:35.830Z,5.91
2023-04-20T06:24:35.786Z,5.89
2023-04-20T06:25:35.803Z,5.90
2023-04-20T06:26:35.787Z,5.91
2023-04-20T06:27:35.763Z,5.93
2023-04-20T06:28:35.730Z,5.90
2023-04-20T06:29:35.731Z,5.94
2023-04-20T06:30:35.702Z,5.97
2023-04-20T06:31:35.747Z,5.93
2023-04-20T06:32:35.681Z,5.94
2023-04-20T06:33:35.703Z,5.97
2023-04-20T06:34:35.643Z,5.98
2023-04-20T06:35:35.652Z,5.99
2023-04-20T06:36:38.649Z,6.01
2023-04-20T06:37:38.604Z,5.84
2023-04-20T06:38:35.578Z,5.83
2023-04-20T06:39:35.627Z,6.08
2023-04-20T06:40:35.555Z,5.84
2023-04-20T06:41:35.546Z,5.94
2023-04-20T06:42:35.534Z,5.93
2023-04-20T06:43:35.577Z,5.94
2023-04-20T06:44:35.524Z,5.98
2023-04-20T06:45:35.491Z,6.02
2023-04-20T06:46:35.532Z,5.98
2023-04-20T06:47:35.533Z,6.04
2023-04-20T06:48:35.504Z,6.07
2023-04-20T06:49:35.499Z,6.08
2023-04-20T06:50:36.143Z,6.07
2023-04-20T06:51:35.446Z,6.08
2023-04-20T06:52:35.407Z,6.11
2023-04-20T06:53:35.417Z,6.17
2023-04-20T06:54:35.362Z,6.27
2023-04-20T06:55:35.403Z,6.24
2023-04-20T06:56:38.329Z,6.19
2023-04-20T06:57:38.349Z,6.16
2023-04-20T06:58:35.362Z,6.22
2023-04-20T06:59:35.295Z,6.19
2023-04-20T07:00:35.299Z,6.22
2023-04-20T07:01:35.409Z,6.19
2023-04-20T07:02:35.280Z,6.24
2023-04-20T07:03:35.414Z,6.27
2023-04-20T07:04:35.238Z,6.31
2023-04-20T07:05:35.246Z,6.28
2023-04-20T07:06:35.191Z,6.24
2023-04-20T07:07:35.203Z,6.26
2023-04-20T07:08:35.165Z,6.31
2023-04-20T07:09:35.169Z,6.35
2023-04-20T07:10:35.169Z,6.33
2023-04-20T07:11:35.135Z,6.38
2023-04-20T07:12:35.115Z,6.39
2023-04-20T07:13:35.145Z,6.38
2023-04-20T07:14:35.087Z,6.38
2023-04-20T07:15:35.101Z,6.39
2023-04-20T07:16:38.104Z,6.44
2023-04-20T07:17:38.104Z,6.39
2023-04-20T07:18:35.535Z,6.45
2023-04-20T07:19:35.014Z,6.57
2023-04-20T07:20:35.036Z,6.62
2023-04-20T07:21:34.995Z,6.64
2023-04-20T07:22:34.984Z,6.74
2023-04-20T07:23:34.972Z,6.69
2023-04-20T07:24:35.024Z,6.44
2023-04-20T07:25:34.947Z,6.46
2023-04-20T07:26:34.921Z,6.51
2023-04-20T07:27:34.922Z,6.74
2023-04-20T07:28:34.915Z,6.72
2023-04-20T07:29:34.904Z,6.75
2023-04-20T07:30:34.920Z,6.75
2023-04-20T07:31:35.522Z,6.81
2023-04-20T07:32:34.912Z,6.87
2023-04-20T07:33:34.838Z,6.84
2023-04-20T07:34:34.849Z,6.78
2023-04-20T07:35:34.873Z,6.57
2023-04-20T07:36:38.115Z,6.70
2023-04-20T07:37:37.779Z,6.67
2023-04-20T07:38:34.764Z,6.67
2023-04-20T07:39:34.757Z,6.62
2023-04-20T07:40:34.740Z,6.63
2023-04-20T07:41:34.761Z,6.69
2023-04-20T07:42:34.723Z,6.69
2023-04-20T07:43:34.704Z,6.72
2023-04-20T07:44:34.706Z,6.77
2023-04-20T07:45:34.777Z,6.82
2023-04-20T07:46:34.653Z,6.82
2023-04-20T07:47:34.758Z,6.84
2023-04-20T07:48:34.643Z,6.79
2023-04-20T07:49:34.637Z,6.78
2023-04-20T07:50:34.610Z,6.77
2023-04-20T07:51:34.648Z,6.75
2023-04-20T07:52:34.581Z,6.79
2023-04-20T07:53:34.582Z,6.84
2023-04-20T07:54:34.738Z,6.92
2023-04-20T07:55:34.551Z,6.97
2023-04-20T07:56:37.586Z,6.96
2023-04-20T07:57:37.522Z,6.92
2023-04-20T07:58:34.494Z,6.89
2023-04-20T07:59:34.509Z,6.87
2023-04-20T08:00:34.464Z,6.95
2023-04-20T08:01:34.496Z,6.95
2023-04-20T08:02:34.604Z,6.93
2023-04-20T08:03:34.653Z,6.85
2023-04-20T08:04:34.615Z,6.87
2023-04-20T08:05:34.464Z,6.93
2023-04-20T08:06:34.428Z,6.93
2023-04-20T08:07:34.395Z,6.88
2023-04-20T08:08:34.369Z,6.88
2023-04-20T08:09:34.365Z,6.88
2023-04-20T08:10:35.205Z,6.84
2023-04-20T08:11:34.335Z,6.92
2023-04-20T08:12:34.333Z,6.92
2023-04-20T08:13:34.296Z,6.95
2023-04-20T08:14:34.282Z,6.95
2023-04-20T08:15:34.379Z,6.96
2023-04-20T08:16:37.268Z,6.96
2023-04-20T08:17:37.293Z,6.92
2023-04-20T08:18:34.247Z,6.93
2023-04-20T08:19:34.219Z,6.96
2023-04-20T08:21:34.220Z,6.85
2023-04-20T08:22:34.195Z,6.85
2023-04-20T08:23:34.161Z,7.07
2023-04-20T08:24:34.157Z,7.05
2023-04-20T08:25:34.163Z,7.07
2023-04-20T08:26:34.122Z,7.07
2023-04-20T08:27:34.107Z,7.05
2023-04-20T08:28:34.368Z,7.02
2023-04-20T08:29:34.106Z,7.06
2023-04-20T08:30:34.077Z,7.03
2023-04-20T08:31:34.106Z,7.07
2023-04-20T08:32:34.087Z,7.10
2023-04-20T08:33:34.110Z,7.17
2023-04-20T08:34:34.420Z,7.14
2023-04-20T08:35:34.017Z,7.18
2023-04-20T08:36:37.017Z,7.15
2023-04-20T08:37:36.976Z,7.17
2023-04-20T08:38:34.424Z,7.06
2023-04-20T08:39:34.071Z,7.11
2023-04-20T08:40:33.929Z,7.33
2023-04-20T08:41:33.916Z,7.32
2023-04-20T08:42:33.905Z,7.29
2023-04-20T08:43:33.886Z,7.20
2023-04-20T08:44:33.899Z,7.15
2023-04-20T08:45:33.921Z,7.14
2023-04-20T08:46:33.905Z,7.11
2023-04-20T08:47:33.924Z,7.11
2023-04-20T08:48:33.836Z,7.14
2023-04-20T08:49:33.814Z,7.17
2023-04-20T08:50:33.794Z,7.13
2023-04-20T08:51:33.847Z,7.17
2023-04-20T08:52:33.784Z,7.18
2023-04-20T08:53:33.791Z,7.18
2023-04-20T08:54:35.180Z,7.23
2023-04-20T08:55:33.733Z,7.23
2023-04-20T08:56:36.893Z,7.24
2023-04-20T08:57:36.705Z,7.23
2023-04-20T08:58:33.680Z,7.17
2023-04-20T08:59:33.673Z,7.18
2023-04-20T09:00:33.685Z,7.17
2023-04-20T09:01:35.910Z,7.21
2023-04-20T09:02:33.819Z,7.21
2023-04-20T09:03:33.740Z,7.15
2023-04-20T09:04:33.656Z,7.13
2023-04-20T09:05:33.622Z,7.15
2023-04-20T09:06:33.580Z,7.15
2023-04-20T09:07:33.574Z,7.18
2023-04-20T09:08:33.579Z,7.24
2023-04-20T09:09:33.536Z,7.24
2023-04-20T09:10:33.538Z,7.25
2023-04-20T09:11:33.576Z,7.25
2023-04-20T09:12:33.493Z,7.25
2023-04-20T09:13:33.498Z,7.21
2023-04-20T09:14:33.505Z,7.23
2023-04-20T09:15:33.463Z,7.24
2023-04-20T09:16:36.546Z,7.25
2023-04-20T09:17:36.463Z,7.28
2023-04-20T09:18:33.412Z,7.31
2023-04-20T09:19:33.459Z,7.29
2023-04-20T09:20:33.490Z,7.35
2023-04-20T09:21:33.481Z,7.38
2023-04-20T09:22:33.477Z,7.40
2023-04-20T09:23:33.361Z,7.38
2023-04-20T09:24:33.448Z,7.40
2023-04-20T09:25:33.345Z,7.39
2023-04-20T09:26:33.306Z,7.45
2023-04-20T09:27:33.326Z,7.51
2023-04-20T09:28:33.282Z,7.53
2023-04-20T09:29:33.304Z,7.58
2023-04-20T09:30:33.259Z,7.58
2023-04-20T09:31:33.289Z,7.60
2023-04-20T09:32:33.319Z,7.63
2023-04-20T09:33:33.231Z,7.61
2023-04-20T09:34:33.203Z,7.58
2023-04-20T09:35:33.192Z,7.56
2023-04-20T09:36:36.209Z,7.54
2023-04-20T09:37:36.257Z,7.53
2023-04-20T09:38:33.150Z,7.54
2023-04-20T09:39:33.136Z,7.29
2023-04-20T09:40:33.124Z,7.36
2023-04-20T09:41:33.112Z,7.57
2023-04-20T09:42:33.131Z,7.33
2023-04-20T09:43:33.111Z,7.35
2023-04-20T09:44:33.112Z,7.29
2023-04-20T09:45:33.105Z,7.25
2023-04-20T09:46:33.063Z,7.47
2023-04-20T09:47:33.051Z,7.50
2023-04-20T09:48:33.003Z,7.53
2023-04-20T09:49:33.010Z,7.51
2023-04-20T09:50:45.723Z,7.51
2023-04-20T09:51:34.013Z,7.57
2023-04-20T09:52:32.958Z,7.60
2023-04-20T09:53:32.974Z,7.60
2023-04-20T09:54:32.933Z,7.58
2023-04-20T09:55:32.945Z,7.58
2023-04-20T09:56:36.027Z,7.61
2023-04-20T09:57:35.899Z,7.67
2023-04-20T09:58:32.914Z,7.73
2023-04-20T09:59:32.877Z,7.72
2023-04-20T10:00:32.911Z,7.70
2023-04-20T10:01:32.882Z,7.75
2023-04-20T10:02:32.938Z,7.83
2023-04-20T10:03:32.926Z,7.87
2023-04-20T10:04:32.947Z,7.87
2023-04-20T10:05:32.819Z,7.90
2023-04-20T10:06:32.800Z,7.90
2023-04-20T10:07:32.802Z,7.97
2023-04-20T10:08:32.749Z,8.10
2023-04-20T10:09:32.733Z,8.05
2023-04-20T10:10:32.723Z,8.01
2023-04-20T10:11:44.621Z,8.01
2023-04-20T10:12:33.722Z,8.06
2023-04-20T10:13:32.686Z,8.10
2023-04-20T10:14:32.680Z,8.15
2023-04-20T10:15:32.658Z,8.26
2023-04-20T10:16:35.769Z,8.26
2023-04-20T10:17:35.689Z,8.24
2023-04-20T10:18:33.097Z,8.26
2023-04-20T10:19:32.596Z,8.26
2023-04-20T10:20:32.593Z,8.30
2023-04-20T10:21:32.627Z,8.41
2023-04-20T10:22:32.605Z,8.41
2023-04-20T10:23:32.552Z,8.41
2023-04-20T10:24:32.539Z,8.44
2023-04-20T10:25:32.614Z,8.48
2023-04-20T10:26:32.507Z,8.52
2023-04-20T10:27:32.532Z,8.38
2023-04-20T10:28:32.505Z,8.36
2023-04-20T10:29:34.466Z,8.42
2023-04-20T10:30:32.458Z,8.37
2023-04-20T10:31:32.492Z,8.42
2023-04-20T10:32:32.500Z,8.38
2023-04-20T10:33:32.427Z,8.48
2023-04-20T10:34:32.405Z,8.42
2023-04-20T10:35:32.434Z,8.36
2023-04-20T10:36:35.370Z,8.20
2023-04-20T10:37:35.389Z,8.28
2023-04-20T10:38:32.380Z,8.34
2023-04-20T10:39:32.332Z,8.41
2023-04-20T10:40:32.315Z,8.46
2023-04-20T10:41:32.327Z,8.49
2023-04-20T10:42:32.301Z,8.51
2023-04-20T10:43:32.350Z,8.52
2023-04-20T10:44:32.255Z,8.51
2023-04-20T10:45:32.245Z,8.41
2023-04-20T10:46:32.302Z,8.41
2023-04-20T10:47:32.329Z,8.45
2023-04-20T10:48:32.218Z,8.49
2023-04-20T10:49:32.247Z,8.45
2023-04-20T10:50:32.190Z,8.44
2023-04-20T10:51:32.170Z,8.38
2023-04-20T10:52:32.170Z,8.46
2023-04-20T10:53:32.142Z,8.53
2023-04-20T10:54:32.130Z,8.51
2023-04-20T10:55:32.147Z,8.49
2023-04-20T10:56:35.121Z,8.48
2023-04-20T10:57:35.084Z,8.48
2023-04-20T10:58:32.122Z,8.51
2023-04-20T10:59:32.067Z,8.49
2023-04-20T11:00:32.057Z,8.52
2023-04-20T11:01:32.066Z,8.63
2023-04-20T11:02:32.227Z,8.63
2023-04-20T11:03:32.137Z,8.67
2023-04-20T11:04:32.064Z,8.71
2023-04-20T11:05:32.024Z,8.79
2023-04-20T11:06:31.980Z,8.81
2023-04-20T11:07:31.996Z,8.88
2023-04-20T11:08:31.968Z,8.92
2023-04-20T11:09:31.930Z,8.91
2023-04-20T11:10:31.954Z,8.84
2023-04-20T11:11:31.909Z,8.84
2023-04-20T11:12:31.899Z,8.91
2023-04-20T11:13:31.868Z,9.03
2023-04-20T11:14:31.915Z,9.23
2023-04-20T11:15:31.845Z,9.46
2023-04-20T11:16:47.886Z,9.55
2023-04-20T11:17:35.856Z,9.58
2023-04-20T11:18:31.835Z,9.69
2023-04-20T11:19:31.833Z,9.82
2023-04-20T11:20:31.777Z,9.99
2023-04-20T11:21:31.755Z,10.12
2023-04-20T11:22:31.777Z,10.12
2023-04-20T11:23:31.730Z,9.95
2023-04-20T11:24:31.770Z,9.84
2023-04-20T11:25:31.736Z,9.76
2023-04-20T11:26:31.699Z,9.86
2023-04-20T11:27:31.698Z,10.01
2023-04-20T11:28:31.669Z,10.05
2023-04-20T11:29:31.655Z,10.01
2023-04-20T11:30:31.664Z,9.83
2023-04-20T11:31:31.732Z,9.84
2023-04-20T11:32:31.949Z,9.82
2023-04-20T11:33:31.656Z,9.77
2023-04-20T11:34:31.614Z,9.74
2023-04-20T11:35:31.595Z,9.80
2023-04-20T11:36:34.596Z,9.74
2023-04-20T11:37:34.558Z,9.61
2023-04-20T11:38:31.575Z,9.62
2023-04-20T11:39:31.556Z,9.73
2023-04-20T11:40:31.517Z,9.77
2023-04-20T11:41:31.533Z,9.76
2023-04-20T11:42:31.511Z,9.72
2023-04-20T11:43:31.473Z,9.65
2023-04-20T11:44:31.484Z,9.58
2023-04-20T11:45:31.950Z,9.56
2023-04-20T11:46:31.657Z,9.65
2023-04-20T11:47:31.469Z,9.72
2023-04-20T11:48:31.420Z,9.73
2023-04-20T11:49:31.402Z,9.72
2023-04-20T11:50:31.375Z,9.77
2023-04-20T11:51:31.392Z,9.82
2023-04-20T11:52:31.354Z,9.87
2023-04-20T11:53:31.342Z,9.94
2023-04-20T11:54:31.341Z,9.91
2023-04-20T11:55:31.318Z,10.09
2023-04-20T11:56:34.345Z,10.23
2023-04-20T11:57:34.299Z,10.59
2023-04-20T11:58:31.285Z,10.72
2023-04-20T11:59:31.257Z,10.99
2023-04-20T12:00:31.245Z,11.11
2023-04-20T12:01:31.242Z,11.00
2023-04-20T12:02:31.360Z,10.94
2023-04-20T12:03:31.338Z,11.00
2023-04-20T12:04:31.463Z,11.00
2023-04-20T12:05:31.300Z,11.11
2023-04-20T12:06:31.161Z,11.30
2023-04-20T12:07:31.195Z,11.37
2023-04-20T12:08:31.156Z,11.33
2023-04-20T12:09:31.140Z,11.37
2023-04-20T12:10:31.110Z,11.17
2023-04-20T12:11:31.122Z,11.05
2023-04-20T12:12:31.191Z,10.99
2023-04-20T12:13:31.068Z,11.12
2023-04-20T12:14:31.054Z,11.17
2023-04-20T12:15:31.107Z,11.14
2023-04-20T12:16:34.182Z,11.22
2023-04-20T12:17:34.103Z,11.32
2023-04-20T12:18:31.024Z,11.44
2023-04-20T12:19:30.975Z,11.19
2023-04-20T12:20:30.977Z,11.07
2023-04-20T12:21:30.972Z,11.02
2023-04-20T12:22:30.940Z,11.02
2023-04-20T12:23:30.967Z,11.00
2023-04-20T12:24:30.915Z,11.00
2023-04-20T12:25:30.905Z,10.97
2023-04-20T12:26:37.982Z,10.94
2023-04-20T12:27:31.864Z,10.93
2023-04-20T12:28:30.857Z,10.84
2023-04-20T12:29:30.867Z,10.87
2023-04-20T12:30:30.839Z,10.86
2023-04-20T12:31:30.888Z,10.87
2023-04-20T12:32:30.834Z,10.86
2023-04-20T12:33:30.791Z,10.92
2023-04-20T12:34:30.938Z,10.93
2023-04-20T12:35:30.754Z,10.86
2023-04-20T12:36:33.744Z,10.75
2023-04-20T12:37:33.742Z,10.57
2023-04-20T12:38:30.707Z,10.48
2023-04-20T12:39:30.753Z,10.49
2023-04-20T12:40:30.680Z,10.44
2023-04-20T12:41:30.687Z,10.51
2023-04-20T12:42:30.656Z,10.42
2023-04-20T12:43:30.650Z,10.51
2023-04-20T12:44:30.631Z,10.41
2023-04-20T12:45:30.644Z,10.34
2023-04-20T12:46:30.636Z,10.38
2023-04-20T12:47:30.664Z,10.41
2023-04-20T12:48:30.584Z,10.38
2023-04-20T12:49:31.943Z,10.40
2023-04-20T12:50:30.577Z,10.38
2023-04-20T12:51:30.556Z,10.40
2023-04-20T12:52:30.530Z,10.35
2023-04-20T12:53:30.506Z,10.34
2023-04-20T12:54:30.534Z,10.28
2023-04-20T12:55:30.545Z,10.31
2023-04-20T12:56:33.495Z,10.33
2023-04-20T12:57:33.461Z,10.37
2023-04-20T12:58:30.499Z,10.37
2023-04-20T12:59:30.435Z,10.41
2023-04-20T13:00:30.489Z,10.44
2023-04-20T13:01:30.609Z,10.51
2023-04-20T13:02:30.494Z,10.54
2023-04-20T13:03:30.513Z,10.42
2023-04-20T13:04:30.424Z,10.44
2023-04-20T13:05:30.385Z,10.37
2023-04-20T13:06:30.365Z,10.37
2023-04-20T13:07:30.343Z,10.40
2023-04-20T13:08:30.342Z,10.37
2023-04-20T13:09:30.292Z,10.30
2023-04-20T13:10:30.323Z,10.30
2023-04-20T13:11:30.284Z,10.34
2023-04-20T13:12:30.285Z,10.35
2023-04-20T13:13:30.253Z,10.33
2023-04-20T13:14:30.250Z,10.34
2023-04-20T13:15:38.974Z,10.35
2023-04-20T13:16:34.266Z,10.40